Pecos, Texas
Current Conditions -  °F | °C
As of 6:35 AM on Wednesday 26 Nov 2014 (Local Time) from KPEQ Reporting Station
Clear Clear  
Wind Chill: 44°   Ceiling: Unl
Heat Index: 47°   Visibility: 10mi
Dew Point: 11°   Wind: 8mph
Humidity: 23%   Direction: 230°SW
Pressure: 30.2"   Gusts: NA
Location:  31.43°N, 103.49°W
Report Text: KPEQ 261235Z AUTO 23007KT 10SM CLR 09/M11 A3020 RMK AO2 T00861115
Loading
Personal Weather Stations






























Interactive Weather Map New forecast layout! Learn more

10-Day Weather Forecast

Advertisements
Track Severe Weather on mobile